sensor_id;sensor_type;location;lat;lon;timestamp;P1;durP1;ratioP1;P2;durP2;ratioP2
7887;SDS011;3989;48.810;9.208;2023-06-10T00:01:23;6.37;;;5.87;;
7887;SDS011;3989;48.810;9.208;2023-06-10T00:03:49;7.10;;;6.20;;
7887;SDS011;3989;48.810;9.208;2023-06-10T00:06:18;6.83;;;6.33;;
7887;SDS011;3989;48.810;9.208;2023-06-10T00:08:46;6.07;;;5.67;;
7887;SDS011;3989;48.810;9.208;2023-06-10T00:11:13;6.60;;;6.10;;
7887;SDS011;3989;48.810;9.208;2023-06-10T00:13:39;6.93;;;6.40;;
7887;SDS011;3989;48.810;9.208;2023-06-10T00:16:06;7.10;;;6.60;;
7887;SDS011;3989;48.810;9.208;2023-06-10T00:18:33;7.13;;;6.63;;
7887;SDS011;3989;48.810;9.208;2023-06-10T00:21:02;6.70;;;6.27;;
7887;SDS011;3989;48.810;9.208;2023-06-10T00:23:31;7.00;;;6.50;;
7887;SDS011;3989;48.810;9.208;2023-06-10T00:26:03;10.13;;;7.37;;
7887;SDS011;3989;48.810;9.208;2023-06-10T00:28:30;7.00;;;6.50;;
7887;SDS011;3989;48.810;9.208;2023-06-10T00:30:56;7.20;;;6.60;;
7887;SDS011;3989;48.810;9.208;2023-06-10T00:33:23;6.60;;;5.93;;
7887;SDS011;3989;48.810;9.208;2023-06-10T00:35:50;6.20;;;5.80;;
7887;SDS011;3989;48.810;9.208;2023-06-10T00:38:16;7.07;;;6.27;;
7887;SDS011;3989;48.810;9.208;2023-06-10T00:40:44;6.60;;;6.10;;
7887;SDS011;3989;48.810;9.208;2023-06-10T00:43:11;6.90;;;6.40;;
7887;SDS011;3989;48.810;9.208;2023-06-10T00:45:37;6.93;;;6.43;;
7887;SDS011;3989;48.810;9.208;2023-06-10T00:48:04;6.97;;;6.40;;
7887;SDS011;3989;48.810;9.208;2023-06-10T00:50:31;7.00;;;6.30;;
7887;SDS011;3989;48.810;9.208;2023-06-10T00:52:59;6.73;;;6.07;;
7887;SDS011;3989;48.810;9.208;2023-06-10T00:55:26;6.90;;;6.30;;
7887;SDS011;3989;48.810;9.208;2023-06-10T00:57:54;6.73;;;6.23;;
7887;SDS011;3989;48.810;9.208;2023-06-10T01:00:21;6.33;;;5.77;;
7887;SDS011;3989;48.810;9.208;2023-06-10T01:02:47;6.57;;;6.17;;
7887;SDS011;3989;48.810;9.208;2023-06-10T01:05:14;6.43;;;6.03;;
7887;SDS011;3989;48.810;9.208;2023-06-10T01:07:43;6.67;;;6.10;;
7887;SDS011;3989;48.810;9.208;2023-06-10T01:10:19;6.23;;;5.73;;
7887;SDS011;3989;48.810;9.208;2023-06-10T01:12:52;6.00;;;5.50;;
7887;SDS011;3989;48.810;9.208;2023-06-10T01:15:27;6.70;;;6.30;;
7887;SDS011;3989;48.810;9.208;2023-06-10T01:17:55;6.13;;;5.73;;
7887;SDS011;3989;48.810;9.208;2023-06-10T01:20:23;6.70;;;6.20;;
7887;SDS011;3989;48.810;9.208;2023-06-10T01:22:53;6.13;;;5.67;;
7887;SDS011;3989;48.810;9.208;2023-06-10T01:25:20;6.80;;;6.20;;
7887;SDS011;3989;48.810;9.208;2023-06-10T01:27:53;6.60;;;6.10;;
7887;SDS011;3989;48.810;9.208;2023-06-10T01:30:23;6.37;;;5.77;;
7887;SDS011;3989;48.810;9.208;2023-06-10T01:32:55;6.60;;;6.00;;
7887;SDS011;3989;48.810;9.208;2023-06-10T01:35:25;6.00;;;5.60;;
7887;SDS011;3989;48.810;9.208;2023-06-10T01:37:54;5.93;;;5.53;;
7887;SDS011;3989;48.810;9.208;2023-06-10T01:40:24;6.87;;;6.27;;
7887;SDS011;3989;48.810;9.208;2023-06-10T01:42:52;6.07;;;5.67;;
7887;SDS011;3989;48.810;9.208;2023-06-10T01:45:19;6.13;;;5.73;;
7887;SDS011;3989;48.810;9.208;2023-06-10T01:47:45;6.50;;;6.10;;
7887;SDS011;3989;48.810;9.208;2023-06-10T01:50:12;6.60;;;6.10;;
7887;SDS011;3989;48.810;9.208;2023-06-10T01:52:39;6.70;;;6.20;;
7887;SDS011;3989;48.810;9.208;2023-06-10T01:55:07;6.67;;;6.27;;
7887;SDS011;3989;48.810;9.208;2023-06-10T01:57:34;6.80;;;6.27;;
7887;SDS011;3989;48.810;9.208;2023-06-10T02:00:01;8.17;;;6.90;;
7887;SDS011;3989;48.810;9.208;2023-06-10T02:02:28;7.53;;;6.87;;
7887;SDS011;3989;48.810;9.208;2023-06-10T02:04:54;7.37;;;6.77;;
7887;SDS011;3989;48.810;9.208;2023-06-10T02:07:22;7.53;;;6.90;;
7887;SDS011;3989;48.810;9.208;2023-06-10T02:09:48;7.70;;;7.10;;
7887;SDS011;3989;48.810;9.208;2023-06-10T02:12:16;7.20;;;6.70;;
7887;SDS011;3989;48.810;9.208;2023-06-10T02:14:43;6.27;;;5.87;;
7887;SDS011;3989;48.810;9.208;2023-06-10T02:17:09;6.60;;;6.00;;
7887;SDS011;3989;48.810;9.208;2023-06-10T02:19:37;6.23;;;5.67;;
7887;SDS011;3989;48.810;9.208;2023-06-10T02:22:07;6.57;;;6.17;;
7887;SDS011;3989;48.810;9.208;2023-06-10T02:24:35;6.27;;;5.87;;
7887;SDS011;3989;48.810;9.208;2023-06-10T02:27:02;5.70;;;5.37;;
7887;SDS011;3989;48.810;9.208;2023-06-10T02:29:30;6.40;;;5.93;;
7887;SDS011;3989;48.810;9.208;2023-06-10T02:31:57;6.73;;;6.30;;
7887;SDS011;3989;48.810;9.208;2023-06-10T02:34:23;5.90;;;5.50;;
7887;SDS011;3989;48.810;9.208;2023-06-10T02:36:50;6.90;;;6.30;;
7887;SDS011;3989;48.810;9.208;2023-06-10T02:39:16;5.93;;;5.47;;
7887;SDS011;3989;48.810;9.208;2023-06-10T02:41:43;7.93;;;6.43;;
7887;SDS011;3989;48.810;9.208;2023-06-10T02:44:09;6.60;;;6.10;;
7887;SDS011;3989;48.810;9.208;2023-06-10T02:46:37;7.80;;;7.10;;
7887;SDS011;3989;48.810;9.208;2023-06-10T02:49:04;6.97;;;6.37;;
7887;SDS011;3989;48.810;9.208;2023-06-10T02:51:31;6.57;;;6.17;;
7887;SDS011;3989;48.810;9.208;2023-06-10T02:53:57;6.40;;;6.00;;
7887;SDS011;3989;48.810;9.208;2023-06-10T02:56:24;7.00;;;6.40;;
7887;SDS011;3989;48.810;9.208;2023-06-10T02:58:50;6.60;;;6.20;;
7887;SDS011;3989;48.810;9.208;2023-06-10T03:01:17;6.13;;;5.73;;
7887;SDS011;3989;48.810;9.208;2023-06-10T03:03:45;6.63;;;6.13;;
7887;SDS011;3989;48.810;9.208;2023-06-10T03:06:12;6.80;;;6.30;;
7887;SDS011;3989;48.810;9.208;2023-06-10T03:08:39;6.13;;;5.63;;
7887;SDS011;3989;48.810;9.208;2023-06-10T03:11:05;6.07;;;5.67;;
7887;SDS011;3989;48.810;9.208;2023-06-10T03:13:32;6.20;;;5.70;;
7887;SDS011;3989;48.810;9.208;2023-06-10T03:15:59;6.63;;;6.03;;
7887;SDS011;3989;48.810;9.208;2023-06-10T03:18:26;5.67;;;5.37;;
7887;SDS011;3989;48.810;9.208;2023-06-10T03:20:55;5.57;;;5.17;;
7887;SDS011;3989;48.810;9.208;2023-06-10T03:23:21;5.97;;;5.57;;
7887;SDS011;3989;48.810;9.208;2023-06-10T03:25:48;6.37;;;5.43;;
7887;SDS011;3989;48.810;9.208;2023-06-10T03:28:15;5.90;;;5.40;;
7887;SDS011;3989;48.810;9.208;2023-06-10T03:30:41;6.10;;;5.50;;
7887;SDS011;3989;48.810;9.208;2023-06-10T03:33:08;5.77;;;5.40;;
7887;SDS011;3989;48.810;9.208;2023-06-10T03:35:34;6.27;;;5.73;;
7887;SDS011;3989;48.810;9.208;2023-06-10T03:38:02;6.37;;;5.60;;
7887;SDS011;3989;48.810;9.208;2023-06-10T03:40:29;5.63;;;5.33;;
7887;SDS011;3989;48.810;9.208;2023-06-10T03:42:56;5.70;;;5.30;;
7887;SDS011;3989;48.810;9.208;2023-06-10T03:45:23;6.20;;;5.80;;
7887;SDS011;3989;48.810;9.208;2023-06-10T03:47:50;5.67;;;5.17;;
7887;SDS011;3989;48.810;9.208;2023-06-10T03:50:17;5.50;;;5.10;;
7887;SDS011;3989;48.810;9.208;2023-06-10T03:52:43;6.57;;;6.03;;
7887;SDS011;3989;48.810;9.208;2023-06-10T03:55:12;5.13;;;4.83;;
7887;SDS011;3989;48.810;9.208;2023-06-10T03:57:38;5.33;;;5.03;;
7887;SDS011;3989;48.810;9.208;2023-06-10T04:00:06;5.90;;;5.50;;
7887;SDS011;3989;48.810;9.208;2023-06-10T04:02:36;6.27;;;5.77;;
7887;SDS011;3989;48.810;9.208;2023-06-10T04:05:03;6.17;;;5.67;;
7887;SDS011;3989;48.810;9.208;2023-06-10T04:07:30;6.07;;;5.67;;
7887;SDS011;3989;48.810;9.208;2023-06-10T04:09:57;5.70;;;5.30;;
7887;SDS011;3989;48.810;9.208;2023-06-10T04:12:25;5.97;;;5.43;;
7887;SDS011;3989;48.810;9.208;2023-06-10T04:14:51;6.10;;;5.50;;
7887;SDS011;3989;48.810;9.208;2023-06-10T04:17:18;4.83;;;4.53;;
7887;SDS011;3989;48.810;9.208;2023-06-10T04:19:45;4.83;;;4.53;;
7887;SDS011;3989;48.810;9.208;2023-06-10T04:22:11;6.07;;;5.47;;
7887;SDS011;3989;48.810;9.208;2023-06-10T04:24:52;5.83;;;5.33;;
7887;SDS011;3989;48.810;9.208;2023-06-10T04:27:19;5.40;;;5.00;;
7887;SDS011;3989;48.810;9.208;2023-06-10T04:29:47;5.50;;;5.00;;
7887;SDS011;3989;48.810;9.208;2023-06-10T04:32:13;7.03;;;6.60;;
7887;SDS011;3989;48.810;9.208;2023-06-10T04:34:40;7.87;;;7.07;;
7887;SDS011;3989;48.810;9.208;2023-06-10T04:37:07;7.50;;;7.00;;
7887;SDS011;3989;48.810;9.208;2023-06-10T04:39:34;7.53;;;6.77;;
7887;SDS011;3989;48.810;9.208;2023-06-10T04:42:00;5.90;;;5.50;;
7887;SDS011;3989;48.810;9.208;2023-06-10T04:44:27;5.27;;;4.93;;
7887;SDS011;3989;48.810;9.208;2023-06-10T04:46:56;5.57;;;5.17;;
7887;SDS011;3989;48.810;9.208;2023-06-10T04:49:23;5.93;;;5.53;;
7887;SDS011;3989;48.810;9.208;2023-06-10T04:51:49;5.27;;;4.97;;
7887;SDS011;3989;48.810;9.208;2023-06-10T04:54:16;6.23;;;5.73;;
7887;SDS011;3989;48.810;9.208;2023-06-10T04:56:43;9.00;;;8.13;;
7887;SDS011;3989;48.810;9.208;2023-06-10T04:59:09;7.60;;;7.10;;
7887;SDS011;3989;48.810;9.208;2023-06-10T05:01:36;7.50;;;6.93;;
7887;SDS011;3989;48.810;9.208;2023-06-10T05:04:04;6.23;;;5.83;;
7887;SDS011;3989;48.810;9.208;2023-06-10T05:06:31;5.88;;;5.45;;
7887;SDS011;3989;48.810;9.208;2023-06-10T05:08:57;5.25;;;4.95;;
7887;SDS011;3989;48.810;9.208;2023-06-10T05:11:24;5.28;;;4.88;;
7887;SDS011;3989;48.810;9.208;2023-06-10T05:13:51;6.47;;;5.65;;
7887;SDS011;3989;48.810;9.208;2023-06-10T05:16:17;5.07;;;4.78;;
7887;SDS011;3989;48.810;9.208;2023-06-10T05:18:44;5.65;;;5.25;;
7887;SDS011;3989;48.810;9.208;2023-06-10T05:21:15;5.32;;;5.03;;
7887;SDS011;3989;48.810;9.208;2023-06-10T05:23:41;5.70;;;5.30;;
7887;SDS011;3989;48.810;9.208;2023-06-10T05:26:08;5.25;;;4.90;;
7887;SDS011;3989;48.810;9.208;2023-06-10T05:28:36;5.50;;;5.20;;
7887;SDS011;3989;48.810;9.208;2023-06-10T05:31:03;5.40;;;5.00;;
7887;SDS011;3989;48.810;9.208;2023-06-10T05:33:29;5.65;;;5.28;;
7887;SDS011;3989;48.810;9.208;2023-06-10T05:35:56;6.07;;;5.50;;
7887;SDS011;3989;48.810;9.208;2023-06-10T05:38:24;5.78;;;5.38;;
7887;SDS011;3989;48.810;9.208;2023-06-10T05:40:50;5.50;;;5.20;;
7887;SDS011;3989;48.810;9.208;2023-06-10T05:43:17;5.38;;;5.07;;
7887;SDS011;3989;48.810;9.208;2023-06-10T05:45:44;5.03;;;4.72;;
7887;SDS011;3989;48.810;9.208;2023-06-10T05:48:10;5.00;;;4.65;;
7887;SDS011;3989;48.810;9.208;2023-06-10T05:50:37;4.20;;;4.00;;
7887;SDS011;3989;48.810;9.208;2023-06-10T05:53:05;4.60;;;4.22;;
7887;SDS011;3989;48.810;9.208;2023-06-10T05:55:34;4.78;;;4.47;;
7887;SDS011;3989;48.810;9.208;2023-06-10T05:58:01;5.05;;;4.55;;
7887;SDS011;3989;48.810;9.208;2023-06-10T06:00:28;4.63;;;4.40;;
7887;SDS011;3989;48.810;9.208;2023-06-10T06:02:55;5.07;;;4.78;;
7887;SDS011;3989;48.810;9.208;2023-06-10T06:05:34;4.65;;;4.32;;
7887;SDS011;3989;48.810;9.208;2023-06-10T06:08:21;4.53;;;4.20;;
7887;SDS011;3989;48.810;9.208;2023-06-10T06:10:49;4.97;;;4.68;;
7887;SDS011;3989;48.810;9.208;2023-06-10T06:13:16;5.63;;;4.32;;
7887;SDS011;3989;48.810;9.208;2023-06-10T06:15:43;4.63;;;4.32;;
7887;SDS011;3989;48.810;9.208;2023-06-10T06:18:10;5.13;;;4.63;;
7887;SDS011;3989;48.810;9.208;2023-06-10T06:20:39;5.38;;;5.00;;
7887;SDS011;3989;48.810;9.208;2023-06-10T06:23:08;5.75;;;4.40;;
7887;SDS011;3989;48.810;9.208;2023-06-10T06:25:36;5.40;;;4.90;;
7887;SDS011;3989;48.810;9.208;2023-06-10T06:28:05;4.63;;;4.22;;
7887;SDS011;3989;48.810;9.208;2023-06-10T06:30:37;4.53;;;4.22;;
7887;SDS011;3989;48.810;9.208;2023-06-10T06:33:06;4.40;;;4.10;;
7887;SDS011;3989;48.810;9.208;2023-06-10T06:35:42;4.88;;;4.57;;
7887;SDS011;3989;48.810;9.208;2023-06-10T06:38:09;5.05;;;4.65;;
7887;SDS011;3989;48.810;9.208;2023-06-10T06:40:39;4.43;;;4.22;;
7887;SDS011;3989;48.810;9.208;2023-06-10T06:43:07;4.15;;;3.95;;
7887;SDS011;3989;48.810;9.208;2023-06-10T06:45:50;4.53;;;4.22;;
7887;SDS011;3989;48.810;9.208;2023-06-10T06:48:30;5.13;;;4.75;;
7887;SDS011;3989;48.810;9.208;2023-06-10T06:53:43;5.10;;;4.35;;
7887;SDS011;3989;48.810;9.208;2023-06-10T06:56:10;4.80;;;4.50;;
7887;SDS011;3989;48.810;9.208;2023-06-10T06:58:39;4.40;;;4.10;;
7887;SDS011;3989;48.810;9.208;2023-06-10T07:01:09;5.13;;;4.72;;
7887;SDS011;3989;48.810;9.208;2023-06-10T07:03:39;4.15;;;3.85;;
7887;SDS011;3989;48.810;9.208;2023-06-10T07:06:07;4.43;;;4.13;;
7887;SDS011;3989;48.810;9.208;2023-06-10T07:08:34;4.40;;;4.18;;
7887;SDS011;3989;48.810;9.208;2023-06-10T07:11:01;4.30;;;4.00;;
7887;SDS011;3989;48.810;9.208;2023-06-10T07:13:28;4.65;;;4.25;;
7887;SDS011;3989;48.810;9.208;2023-06-10T07:15:58;4.38;;;4.18;;
7887;SDS011;3989;48.810;9.208;2023-06-10T07:18:27;4.20;;;3.90;;
7887;SDS011;3989;48.810;9.208;2023-06-10T07:20:57;4.32;;;3.92;;
7887;SDS011;3989;48.810;9.208;2023-06-10T07:23:24;4.88;;;4.57;;
7887;SDS011;3989;48.810;9.208;2023-06-10T07:25:51;4.50;;;4.22;;
7887;SDS011;3989;48.810;9.208;2023-06-10T07:28:17;4.47;;;4.18;;
7887;SDS011;3989;48.810;9.208;2023-06-10T07:30:44;4.28;;;4.05;;
7887;SDS011;3989;48.810;9.208;2023-06-10T07:33:12;4.60;;;4.20;;
7887;SDS011;3989;48.810;9.208;2023-06-10T07:35:39;4.28;;;4.07;;
7887;SDS011;3989;48.810;9.208;2023-06-10T07:38:08;4.30;;;4.10;;
7887;SDS011;3989;48.810;9.208;2023-06-10T07:40:34;3.75;;;3.55;;
7887;SDS011;3989;48.810;9.208;2023-06-10T07:43:01;4.25;;;4.05;;
7887;SDS011;3989;48.810;9.208;2023-06-10T07:45:27;3.78;;;3.47;;
7887;SDS011;3989;48.810;9.208;2023-06-10T07:47:54;4.13;;;3.88;;
7887;SDS011;3989;48.810;9.208;2023-06-10T07:50:22;3.75;;;3.55;;
7887;SDS011;3989;48.810;9.208;2023-06-10T07:52:49;4.40;;;3.88;;
7887;SDS011;3989;48.810;9.208;2023-06-10T07:55:16;4.13;;;3.88;;
7887;SDS011;3989;48.810;9.208;2023-06-10T07:57:42;4.13;;;3.83;;
7887;SDS011;3989;48.810;9.208;2023-06-10T08:00:09;3.85;;;3.55;;
7887;SDS011;3989;48.810;9.208;2023-06-10T08:02:36;3.97;;;3.67;;
7887;SDS011;3989;48.810;9.208;2023-06-10T08:05:04;4.20;;;4.00;;
7887;SDS011;3989;48.810;9.208;2023-06-10T08:07:32;4.10;;;3.85;;
7887;SDS011;3989;48.810;9.208;2023-06-10T08:10:02;4.28;;;3.97;;
7887;SDS011;3989;48.810;9.208;2023-06-10T08:12:30;4.45;;;4.25;;
7887;SDS011;3989;48.810;9.208;2023-06-10T08:14:57;4.78;;;4.47;;
7887;SDS011;3989;48.810;9.208;2023-06-10T08:17:23;4.43;;;4.22;;
7887;SDS011;3989;48.810;9.208;2023-06-10T08:19:50;4.35;;;4.00;;
7887;SDS011;3989;48.810;9.208;2023-06-10T08:22:16;4.20;;;4.00;;
7887;SDS011;3989;48.810;9.208;2023-06-10T08:24:44;4.78;;;4.38;;
7887;SDS011;3989;48.810;9.208;2023-06-10T08:27:11;4.50;;;4.20;;
7887;SDS011;3989;48.810;9.208;2023-06-10T08:29:37;4.57;;;4.28;;
7887;SDS011;3989;48.810;9.208;2023-06-10T08:32:05;4.95;;;4.53;;
7887;SDS011;3989;48.810;9.208;2023-06-10T08:34:33;4.97;;;4.60;;
7887;SDS011;3989;48.810;9.208;2023-06-10T08:37:00;4.47;;;4.20;;
7887;SDS011;3989;48.810;9.208;2023-06-10T08:39:26;5.05;;;4.65;;
7887;SDS011;3989;48.810;9.208;2023-06-10T08:42:00;5.28;;;4.60;;
7887;SDS011;3989;48.810;9.208;2023-06-10T08:44:31;4.45;;;4.15;;
7887;SDS011;3989;48.810;9.208;2023-06-10T08:46:58;3.95;;;3.75;;
7887;SDS011;3989;48.810;9.208;2023-06-10T08:49:26;4.45;;;4.13;;
7887;SDS011;3989;48.810;9.208;2023-06-10T08:51:57;4.25;;;3.95;;
7887;SDS011;3989;48.810;9.208;2023-06-10T08:54:27;4.22;;;4.03;;
7887;SDS011;3989;48.810;9.208;2023-06-10T08:56:57;4.32;;;4.13;;
7887;SDS011;3989;48.810;9.208;2023-06-10T08:59:29;3.85;;;3.65;;
7887;SDS011;3989;48.810;9.208;2023-06-10T09:01:55;5.03;;;4.60;;
7887;SDS011;3989;48.810;9.208;2023-06-10T09:04:23;4.63;;;4.32;;
7887;SDS011;3989;48.810;9.208;2023-06-10T09:06:51;4.85;;;4.55;;
7887;SDS011;3989;48.810;9.208;2023-06-10T09:09:18;3.72;;;3.53;;
7887;SDS011;3989;48.810;9.208;2023-06-10T09:11:46;4.25;;;3.85;;
7887;SDS011;3989;48.810;9.208;2023-06-10T09:14:14;4.88;;;4.57;;
7887;SDS011;3989;48.810;9.208;2023-06-10T09:16:41;4.43;;;4.13;;
7887;SDS011;3989;48.810;9.208;2023-06-10T09:19:08;4.85;;;4.55;;
7887;SDS011;3989;48.810;9.208;2023-06-10T09:21:35;3.97;;;3.67;;
7887;SDS011;3989;48.810;9.208;2023-06-10T09:24:02;4.38;;;4.07;;
7887;SDS011;3989;48.810;9.208;2023-06-10T09:26:29;4.70;;;4.25;;
7887;SDS011;3989;48.810;9.208;2023-06-10T09:28:57;4.18;;;3.97;;
7887;SDS011;3989;48.810;9.208;2023-06-10T09:31:31;4.30;;;4.10;;
7887;SDS011;3989;48.810;9.208;2023-06-10T09:34:07;4.53;;;4.30;;
7887;SDS011;3989;48.810;9.208;2023-06-10T09:36:35;4.30;;;4.03;;
7887;SDS011;3989;48.810;9.208;2023-06-10T09:39:02;4.28;;;3.97;;
7887;SDS011;3989;48.810;9.208;2023-06-10T09:41:32;4.57;;;4.38;;
7887;SDS011;3989;48.810;9.208;2023-06-10T09:44:00;4.80;;;4.55;;
7887;SDS011;3989;48.810;9.208;2023-06-10T09:46:31;4.38;;;4.10;;
7887;SDS011;3989;48.810;9.208;2023-06-10T09:48:58;4.78;;;4.47;;
7887;SDS011;3989;48.810;9.208;2023-06-10T09:51:25;4.80;;;4.60;;
7887;SDS011;3989;48.810;9.208;2023-06-10T09:53:53;4.28;;;4.05;;
7887;SDS011;3989;48.810;9.208;2023-06-10T09:56:20;4.20;;;3.88;;
7887;SDS011;3989;48.810;9.208;2023-06-10T09:58:49;4.20;;;4.00;;
7887;SDS011;3989;48.810;9.208;2023-06-10T10:01:19;4.93;;;4.30;;
7887;SDS011;3989;48.810;9.208;2023-06-10T10:03:48;4.05;;;3.78;;
7887;SDS011;3989;48.810;9.208;2023-06-10T10:06:16;4.45;;;4.13;;
7887;SDS011;3989;48.810;9.208;2023-06-10T10:08:44;4.75;;;3.78;;
7887;SDS011;3989;48.810;9.208;2023-06-10T10:11:11;4.40;;;4.20;;
7887;SDS011;3989;48.810;9.208;2023-06-10T10:13:38;5.68;;;3.88;;
7887;SDS011;3989;48.810;9.208;2023-06-10T10:16:06;4.35;;;4.05;;
7887;SDS011;3989;48.810;9.208;2023-06-10T10:18:38;4.35;;;4.05;;
7887;SDS011;3989;48.810;9.208;2023-06-10T10:21:11;4.15;;;3.95;;
7887;SDS011;3989;48.810;9.208;2023-06-10T10:23:40;5.03;;;3.83;;
7887;SDS011;3989;48.810;9.208;2023-06-10T10:26:14;4.18;;;3.92;;
7887;SDS011;3989;48.810;9.208;2023-06-10T10:28:44;4.07;;;3.88;;
7887;SDS011;3989;48.810;9.208;2023-06-10T10:31:15;4.40;;;4.13;;
7887;SDS011;3989;48.810;9.208;2023-06-10T10:33:48;4.38;;;4.18;;
7887;SDS011;3989;48.810;9.208;2023-06-10T10:36:22;4.55;;;4.25;;
7887;SDS011;3989;48.810;9.208;2023-06-10T10:38:49;3.88;;;3.67;;
7887;SDS011;3989;48.810;9.208;2023-06-10T10:41:16;4.43;;;4.10;;
7887;SDS011;3989;48.810;9.208;2023-06-10T10:43:45;4.43;;;4.22;;
7887;SDS011;3989;48.810;9.208;2023-06-10T10:46:13;4.45;;;4.05;;
7887;SDS011;3989;48.810;9.208;2023-06-10T10:48:42;4.40;;;4.20;;
7887;SDS011;3989;48.810;9.208;2023-06-10T10:51:10;4.22;;;4.03;;
7887;SDS011;3989;48.810;9.208;2023-06-10T10:53:38;5.00;;;4.60;;
7887;SDS011;3989;48.810;9.208;2023-06-10T10:56:05;4.15;;;3.95;;
7887;SDS011;3989;48.810;9.208;2023-06-10T10:58:33;4.38;;;4.07;;
7887;SDS011;3989;48.810;9.208;2023-06-10T11:01:07;4.07;;;3.88;;
7887;SDS011;3989;48.810;9.208;2023-06-10T11:03:41;4.45;;;4.13;;
7887;SDS011;3989;48.810;9.208;2023-06-10T11:06:11;4.45;;;4.15;;
7887;SDS011;3989;48.810;9.208;2023-06-10T11:08:46;4.28;;;4.05;;
7887;SDS011;3989;48.810;9.208;2023-06-10T11:11:19;4.70;;;4.30;;
7887;SDS011;3989;48.810;9.208;2023-06-10T11:13:59;4.10;;;3.90;;
7887;SDS011;3989;48.810;9.208;2023-06-10T11:16:38;4.18;;;3.97;;
7887;SDS011;3989;48.810;9.208;2023-06-10T11:19:06;4.13;;;3.92;;
7887;SDS011;3989;48.810;9.208;2023-06-10T11:21:36;4.28;;;3.97;;
7887;SDS011;3989;48.810;9.208;2023-06-10T11:24:25;4.18;;;3.97;;
7887;SDS011;3989;48.810;9.208;2023-06-10T11:26:52;4.63;;;4.32;;
7887;SDS011;3989;48.810;9.208;2023-06-10T11:29:19;4.22;;;3.92;;
7887;SDS011;3989;48.810;9.208;2023-06-10T11:31:48;3.60;;;3.40;;
7887;SDS011;3989;48.810;9.208;2023-06-10T11:34:21;4.20;;;4.00;;
7887;SDS011;3989;48.810;9.208;2023-06-10T11:36:49;3.88;;;3.67;;
7887;SDS011;3989;48.810;9.208;2023-06-10T11:39:18;4.20;;;4.00;;
7887;SDS011;3989;48.810;9.208;2023-06-10T11:41:47;3.90;;;3.53;;
7887;SDS011;3989;48.810;9.208;2023-06-10T11:44:17;5.18;;;4.80;;
7887;SDS011;3989;48.810;9.208;2023-06-10T11:46:44;4.43;;;4.22;;
7887;SDS011;3989;48.810;9.208;2023-06-10T11:49:12;4.55;;;4.15;;
7887;SDS011;3989;48.810;9.208;2023-06-10T11:52:10;3.60;;;3.45;;
7887;SDS011;3989;48.810;9.208;2023-06-10T11:54:46;3.58;;;3.35;;
7887;SDS011;3989;48.810;9.208;2023-06-10T12:01:37;3.67;;;3.47;;
7887;SDS011;3989;48.810;9.208;2023-06-10T12:04:45;4.72;;;4.38;;
7887;SDS011;3989;48.810;9.208;2023-06-10T12:11:37;4.28;;;4.05;;
7887;SDS011;3989;48.810;9.208;2023-06-10T12:18:23;3.90;;;3.70;;
7887;SDS011;3989;48.810;9.208;2023-06-10T12:21:26;3.75;;;3.53;;
7887;SDS011;3989;48.810;9.208;2023-06-10T12:24:02;3.83;;;3.63;;
7887;SDS011;3989;48.810;9.208;2023-06-10T12:26:57;3.28;;;3.17;;
7887;SDS011;3989;48.810;9.208;2023-06-10T12:29:24;3.15;;;3.05;;
7887;SDS011;3989;48.810;9.208;2023-06-10T12:31:55;3.90;;;3.60;;
7887;SDS011;3989;48.810;9.208;2023-06-10T12:34:42;3.38;;;3.20;;
7887;SDS011;3989;48.810;9.208;2023-06-10T12:37:23;3.45;;;3.25;;
7887;SDS011;3989;48.810;9.208;2023-06-10T12:40:14;3.10;;;3.00;;
7887;SDS011;3989;48.810;9.208;2023-06-10T12:42:40;3.75;;;3.45;;
7887;SDS011;3989;48.810;9.208;2023-06-10T12:45:14;3.15;;;3.05;;
7887;SDS011;3989;48.810;9.208;2023-06-10T12:51:08;3.30;;;3.20;;
7887;SDS011;3989;48.810;9.208;2023-06-10T12:53:45;3.15;;;3.05;;
7887;SDS011;3989;48.810;9.208;2023-06-10T12:56:15;3.90;;;3.47;;
7887;SDS011;3989;48.810;9.208;2023-06-10T12:58:51;3.40;;;3.30;;
7887;SDS011;3989;48.810;9.208;2023-06-10T13:01:20;4.00;;;3.72;;
7887;SDS011;3989;48.810;9.208;2023-06-10T13:03:49;3.20;;;3.00;;
7887;SDS011;3989;48.810;9.208;2023-06-10T13:06:41;4.03;;;3.67;;
7887;SDS011;3989;48.810;9.208;2023-06-10T13:09:33;3.70;;;3.50;;
7887;SDS011;3989;48.810;9.208;2023-06-10T13:12:35;3.20;;;3.00;;
7887;SDS011;3989;48.810;9.208;2023-06-10T13:15:03;3.22;;;3.00;;
7887;SDS011;3989;48.810;9.208;2023-06-10T13:17:31;3.90;;;3.70;;
7887;SDS011;3989;48.810;9.208;2023-06-10T13:19:59;3.28;;;3.17;;
7887;SDS011;3989;48.810;9.208;2023-06-10T13:22:31;3.45;;;3.35;;
7887;SDS011;3989;48.810;9.208;2023-06-10T13:24:59;3.55;;;3.17;;
7887;SDS011;3989;48.810;9.208;2023-06-10T13:27:31;3.20;;;3.10;;
7887;SDS011;3989;48.810;9.208;2023-06-10T13:30:06;3.80;;;3.30;;
7887;SDS011;3989;48.810;9.208;2023-06-10T13:32:35;3.25;;;3.05;;
7887;SDS011;3989;48.810;9.208;2023-06-10T13:35:02;4.05;;;2.90;;
7887;SDS011;3989;48.810;9.208;2023-06-10T13:37:31;2.80;;;2.70;;
7887;SDS011;3989;48.810;9.208;2023-06-10T13:39:58;4.25;;;3.22;;
7887;SDS011;3989;48.810;9.208;2023-06-10T13:42:25;3.25;;;3.15;;
7887;SDS011;3989;48.810;9.208;2023-06-10T13:44:54;3.28;;;3.08;;
7887;SDS011;3989;48.810;9.208;2023-06-10T13:47:21;3.22;;;3.03;;
7887;SDS011;3989;48.810;9.208;2023-06-10T13:49:48;3.28;;;3.17;;
7887;SDS011;3989;48.810;9.208;2023-06-10T13:52:15;3.28;;;3.08;;
7887;SDS011;3989;48.810;9.208;2023-06-10T13:54:44;3.22;;;3.03;;
7887;SDS011;3989;48.810;9.208;2023-06-10T13:57:10;3.03;;;2.92;;
7887;SDS011;3989;48.810;9.208;2023-06-10T13:59:37;3.70;;;3.50;;
7887;SDS011;3989;48.810;9.208;2023-06-10T14:02:04;3.10;;;3.00;;
7887;SDS011;3989;48.810;9.208;2023-06-10T14:04:31;2.92;;;2.83;;
7887;SDS011;3989;48.810;9.208;2023-06-10T14:06:58;3.50;;;3.30;;
7887;SDS011;3989;48.810;9.208;2023-06-10T14:09:27;3.22;;;3.03;;
7887;SDS011;3989;48.810;9.208;2023-06-10T14:11:55;3.47;;;3.28;;
7887;SDS011;3989;48.810;9.208;2023-06-10T14:14:22;3.33;;;3.00;;
7887;SDS011;3989;48.810;9.208;2023-06-10T14:16:49;3.47;;;3.35;;
7887;SDS011;3989;48.810;9.208;2023-06-10T14:19:15;3.50;;;3.22;;
7887;SDS011;3989;48.810;9.208;2023-06-10T14:24:30;3.58;;;3.38;;
7887;SDS011;3989;48.810;9.208;2023-06-10T14:27:03;3.60;;;3.50;;
7887;SDS011;3989;48.810;9.208;2023-06-10T14:29:44;3.25;;;3.05;;
7887;SDS011;3989;48.810;9.208;2023-06-10T14:32:11;4.80;;;3.30;;
7887;SDS011;3989;48.810;9.208;2023-06-10T14:34:37;3.28;;;3.17;;
7887;SDS011;3989;48.810;9.208;2023-06-10T14:37:04;3.50;;;3.30;;
7887;SDS011;3989;48.810;9.208;2023-06-10T14:39:32;4.20;;;3.90;;
7887;SDS011;3989;48.810;9.208;2023-06-10T14:42:00;3.88;;;3.58;;
7887;SDS011;3989;48.810;9.208;2023-06-10T14:44:27;3.85;;;3.58;;
7887;SDS011;3989;48.810;9.208;2023-06-10T14:46:54;3.75;;;3.40;;
7887;SDS011;3989;48.810;9.208;2023-06-10T14:49:21;3.55;;;3.35;;
7887;SDS011;3989;48.810;9.208;2023-06-10T14:51:47;3.83;;;3.53;;
7887;SDS011;3989;48.810;9.208;2023-06-10T14:54:14;3.60;;;3.30;;
7887;SDS011;3989;48.810;9.208;2023-06-10T14:56:41;3.83;;;3.63;;
7887;SDS011;3989;48.810;9.208;2023-06-10T14:59:09;4.07;;;3.88;;
7887;SDS011;3989;48.810;9.208;2023-06-10T15:01:35;4.05;;;3.85;;
7887;SDS011;3989;48.810;9.208;2023-06-10T15:04:02;3.70;;;3.60;;
7887;SDS011;3989;48.810;9.208;2023-06-10T15:06:28;4.20;;;3.88;;
7887;SDS011;3989;48.810;9.208;2023-06-10T15:08:55;10.85;;;4.00;;
7887;SDS011;3989;48.810;9.208;2023-06-10T15:11:22;3.80;;;3.60;;
7887;SDS011;3989;48.810;9.208;2023-06-10T15:13:48;3.95;;;3.65;;
7887;SDS011;3989;48.810;9.208;2023-06-10T15:16:16;4.03;;;3.83;;
7887;SDS011;3989;48.810;9.208;2023-06-10T15:18:43;3.75;;;3.55;;
7887;SDS011;3989;48.810;9.208;2023-06-10T15:21:10;3.63;;;3.42;;
7887;SDS011;3989;48.810;9.208;2023-06-10T15:23:37;4.07;;;3.88;;
7887;SDS011;3989;48.810;9.208;2023-06-10T15:26:04;3.92;;;3.72;;
7887;SDS011;3989;48.810;9.208;2023-06-10T15:28:31;3.42;;;3.33;;
7887;SDS011;3989;48.810;9.208;2023-06-10T15:30:58;3.67;;;3.47;;
7887;SDS011;3989;48.810;9.208;2023-06-10T15:33:26;3.35;;;3.20;;
7887;SDS011;3989;48.810;9.208;2023-06-10T15:35:53;3.55;;;3.45;;
7887;SDS011;3989;48.810;9.208;2023-06-10T15:38:19;3.28;;;3.10;;
7887;SDS011;3989;48.810;9.208;2023-06-10T15:40:46;4.32;;;3.67;;
7887;SDS011;3989;48.810;9.208;2023-06-10T15:43:13;4.25;;;4.05;;
7887;SDS011;3989;48.810;9.208;2023-06-10T15:45:39;3.03;;;2.92;;
7887;SDS011;3989;48.810;9.208;2023-06-10T15:48:06;6.93;;;3.83;;